Time;durP1;ratioP1;P1;durP2;ratioP2;P2;SDS_P1;SDS_P2;PMS_P1;PMS_P2;Temp;Humidity;BMP_temperature;BMP_pressure;BME280_temperature;BME280_humidity;BME280_pressure;Samples;Min_cycle;Max_cycle;Signal;HPM_P1;HPM_P2
2022/03/22 00:00:47;;;;;;;13.20;9.93;;;3.90;93.80;;;;;;5035412;28;20205;-57
2022/03/22 00:03:14;;;;;;;14.93;9.70;;;4.00;93.90;;;;;;5035353;28;20227;-57
2022/03/22 00:05:42;;;;;;;14.37;9.87;;;4.00;93.70;;;;;;5035495;28;20213;-57
2022/03/22 00:08:09;;;;;;;12.23;9.37;;;4.10;93.70;;;;;;5034994;28;20686;-57
2022/03/22 00:10:36;;;;;;;15.13;9.73;;;4.00;93.70;;;;;;5035321;28;20265;-57
2022/03/22 00:13:04;;;;;;;14.10;10.40;;;4.00;93.70;;;;;;5035011;28;20237;-58
2022/03/22 00:15:30;;;;;;;13.93;9.70;;;4.00;93.80;;;;;;5035674;28;20275;-57
2022/03/22 00:17:59;;;;;;;15.80;9.50;;;4.00;93.80;;;;;;5035003;28;20218;-57
2022/03/22 00:20:27;;;;;;;14.13;8.93;;;4.00;94.00;;;;;;5035288;28;20229;-57
2022/03/22 00:22:54;;;;;;;12.83;9.33;;;3.90;94.00;;;;;;5035035;28;20230;-57
2022/03/22 00:25:21;;;;;;;13.33;9.57;;;4.00;94.00;;;;;;5034954;28;20587;-58
2022/03/22 00:27:53;;;;;;;14.80;10.03;;;4.00;93.90;;;;;;5034577;28;20210;-58
2022/03/22 00:30:21;;;;;;;12.97;9.90;;;4.00;93.80;;;;;;5035029;28;20232;-58
2022/03/22 00:32:50;;;;;;;12.73;9.20;;;4.00;93.90;;;;;;5034739;28;20234;-58
2022/03/22 00:35:18;;;;;;;14.37;11.40;;;4.00;94.00;;;;;;5034847;28;20208;-59
2022/03/22 00:37:49;;;;;;;13.23;9.50;;;3.90;94.10;;;;;;5034985;28;20210;-58
2022/03/22 00:40:16;;;;;;;13.27;9.50;;;3.80;94.30;;;;;;5034651;28;20961;-58
2022/03/22 00:42:46;;;;;;;14.43;10.40;;;3.70;94.50;;;;;;5034598;28;20750;-58
2022/03/22 00:45:13;;;;;;;13.50;9.20;;;3.60;94.60;;;;;;5034727;28;20202;-58
2022/03/22 00:47:40;;;;;;;16.67;10.77;;;3.60;94.70;;;;;;5034249;28;20301;-57
2022/03/22 00:50:08;;;;;;;13.93;11.33;;;3.50;94.80;;;;;;5034581;28;20362;-57
2022/03/22 00:52:36;;;;;;;14.10;9.90;;;3.50;94.80;;;;;;5034289;28;20226;-58
2022/03/22 00:55:05;;;;;;;14.97;11.13;;;3.50;94.90;;;;;;5034804;28;20297;-57
2022/03/22 00:57:32;;;;;;;12.83;10.07;;;3.50;95.00;;;;;;5034362;28;20281;-57
2022/03/22 01:00:05;;;;;;;18.50;11.97;;;3.50;95.00;;;;;;5034552;28;20206;-58
2022/03/22 01:02:35;;;;;;;16.80;11.63;;;3.40;95.10;;;;;;5034447;28;20289;-58
2022/03/22 01:05:03;;;;;;;17.97;12.10;;;3.40;95.10;;;;;;5034254;28;20289;-57
2022/03/22 01:07:30;;;;;;;14.37;10.53;;;3.50;95.10;;;;;;5034136;28;20263;-58
2022/03/22 01:09:58;;;;;;;15.33;11.13;;;3.40;95.00;;;;;;5034225;28;20225;-58
2022/03/22 01:12:25;;;;;;;14.37;10.10;;;3.50;95.10;;;;;;5034223;28;20229;-58
2022/03/22 01:14:52;;;;;;;13.27;9.97;;;3.40;95.30;;;;;;5034179;28;20206;-58
2022/03/22 01:17:19;;;;;;;14.53;10.07;;;3.20;95.50;;;;;;5033730;28;20210;-57
2022/03/22 01:19:46;;;;;;;13.70;10.43;;;3.20;95.60;;;;;;5033994;28;20209;-57
2022/03/22 01:22:16;;;;;;;15.60;11.50;;;3.20;95.60;;;;;;5034086;28;20309;-58
2022/03/22 01:24:43;;;;;;;15.93;10.67;;;3.10;95.60;;;;;;5034135;28;20210;-57
2022/03/22 01:27:12;;;;;;;14.93;9.97;;;3.00;95.70;;;;;;5033757;28;20212;-58
2022/03/22 01:29:39;;;;;;;21.27;10.97;;;2.90;95.90;;;;;;5033817;28;20249;-58
2022/03/22 01:32:07;;;;;;;12.80;9.53;;;2.70;96.30;;;;;;5033710;28;20276;-58
2022/03/22 01:34:33;;;;;;;14.73;11.03;;;2.70;96.40;;;;;;5033608;28;20468;-58
2022/03/22 01:37:00;;;;;;;13.40;10.00;;;2.70;96.50;;;;;;5034002;28;20649;-58
2022/03/22 01:39:27;;;;;;;14.47;10.13;;;2.80;96.60;;;;;;5034274;28;20206;-58
2022/03/22 01:41:53;;;;;;;17.17;11.80;;;2.70;96.60;;;;;;5034182;28;20234;-59
2022/03/22 01:44:21;;;;;;;14.27;10.40;;;2.60;96.70;;;;;;5033787;28;20206;-58
2022/03/22 01:46:50;;;;;;;13.33;9.90;;;2.60;96.80;;;;;;5033438;28;20530;-58
2022/03/22 01:49:18;;;;;;;15.17;10.90;;;2.50;97.00;;;;;;5033687;28;20202;-57
2022/03/22 01:51:48;;;;;;;15.33;11.27;;;2.40;97.20;;;;;;5033445;28;20272;-57
2022/03/22 01:54:16;;;;;;;18.03;10.97;;;2.40;97.30;;;;;;5033492;28;20210;-57
2022/03/22 01:56:43;;;;;;;32.63;17.77;;;2.30;97.40;;;;;;5033216;28;20264;-57
2022/03/22 01:59:10;;;;;;;13.67;10.07;;;2.30;97.50;;;;;;5033059;28;20744;-58
2022/03/22 02:07:08;;;;;;;14.77;10.67;;;2.30;97.70;;;;;;5033103;28;20197;-57
2022/03/22 02:09:34;;;;;;;18.17;10.67;;;2.30;97.60;;;;;;5033255;28;20218;-57
2022/03/22 02:12:01;;;;;;;15.80;10.40;;;2.30;97.70;;;;;;5033007;28;20702;-57
2022/03/22 02:14:28;;;;;;;16.13;10.67;;;2.20;97.70;;;;;;5033324;28;20210;-57
2022/03/22 02:16:56;;;;;;;14.83;10.70;;;2.20;97.80;;;;;;5032729;28;20206;-57
2022/03/22 02:19:23;;;;;;;15.97;10.47;;;2.20;97.80;;;;;;5033416;28;20209;-57
2022/03/22 02:21:55;;;;;;;14.67;10.00;;;2.20;97.80;;;;;;5032939;28;20305;-57
2022/03/22 02:24:23;;;;;;;14.27;10.07;;;2.20;97.90;;;;;;5032807;28;20206;-57
2022/03/22 02:26:50;;;;;;;14.53;10.43;;;2.10;98.00;;;;;;5032700;28;20213;-57
2022/03/22 02:29:17;;;;;;;13.63;9.53;;;2.10;98.10;;;;;;5032954;28;20210;-58
2022/03/22 02:31:44;;;;;;;13.87;9.67;;;2.20;98.00;;;;;;5032829;28;20241;-57
2022/03/22 02:34:11;;;;;;;15.73;9.93;;;2.30;97.90;;;;;;5032683;28;20206;-57
2022/03/22 02:36:38;;;;;;;13.80;10.10;;;2.20;97.90;;;;;;5032260;28;20678;-57
2022/03/22 02:39:05;;;;;;;14.00;10.37;;;2.30;97.80;;;;;;5032814;28;20210;-57
2022/03/22 02:41:33;;;;;;;14.43;10.30;;;2.40;97.50;;;;;;5032472;28;20206;-57
2022/03/22 02:43:59;;;;;;;12.10;9.27;;;2.60;97.40;;;;;;5032595;28;20237;-57
2022/03/22 02:46:26;;;;;;;16.40;10.07;;;2.70;97.20;;;;;;5032221;28;20268;-57
2022/03/22 02:48:54;;;;;;;15.50;10.50;;;2.70;97.10;;;;;;5032550;28;20214;-57
2022/03/22 02:51:21;;;;;;;15.80;10.27;;;2.80;97.00;;;;;;5032298;28;20604;-57
2022/03/22 02:53:48;;;;;;;12.93;10.63;;;2.80;96.90;;;;;;5032466;28;20285;-57
2022/03/22 02:56:15;;;;;;;13.53;10.20;;;2.80;96.80;;;;;;5032187;28;20210;-57
2022/03/22 02:58:43;;;;;;;12.43;9.60;;;2.90;96.80;;;;;;5032466;28;20202;-57
2022/03/22 03:01:10;;;;;;;16.40;10.33;;;2.80;96.70;;;;;;5032309;28;20413;-57
2022/03/22 03:03:37;;;;;;;15.20;10.70;;;2.90;96.80;;;;;;5032169;28;20279;-57
2022/03/22 03:06:04;;;;;;;13.17;9.90;;;2.90;96.90;;;;;;5032128;28;20218;-57
2022/03/22 03:08:31;;;;;;;14.17;9.97;;;2.90;96.80;;;;;;5032187;28;20221;-57
2022/03/22 03:10:58;;;;;;;15.50;10.20;;;2.80;96.80;;;;;;5032324;28;20265;-57
2022/03/22 03:13:24;;;;;;;16.13;10.80;;;2.80;97.00;;;;;;5032104;28;20632;-58
2022/03/22 03:15:53;;;;;;;11.87;9.50;;;2.80;96.90;;;;;;5032261;28;20263;-57
2022/03/22 03:18:20;;;;;;;31.50;20.07;;;2.90;96.90;;;;;;5031813;28;20210;-57
2022/03/22 03:20:46;;;;;;;24.87;16.83;;;2.90;96.80;;;;;;5032009;28;20202;-57
2022/03/22 03:23:13;;;;;;;20.27;13.67;;;3.00;96.70;;;;;;5032251;28;20222;-57
2022/03/22 03:25:40;;;;;;;14.27;10.87;;;3.00;96.60;;;;;;5031969;28;20678;-57
2022/03/22 03:28:06;;;;;;;18.00;12.80;;;3.00;96.70;;;;;;5031809;28;20237;-58
2022/03/22 03:30:34;;;;;;;18.90;12.73;;;3.00;96.70;;;;;;5035477;28;20771;-58
2022/03/22 03:33:03;;;;;;;19.47;13.70;;;3.00;96.80;;;;;;5036517;28;20721;-57
2022/03/22 03:35:30;;;;;;;19.37;13.53;;;3.00;96.70;;;;;;5036267;28;20288;-58
2022/03/22 03:37:57;;;;;;;18.50;10.80;;;3.10;96.70;;;;;;5035761;28;20213;-57
2022/03/22 03:41:53;;;;;;;14.17;10.20;;;3.10;96.70;;;;;;5035774;28;20670;-57
2022/03/22 03:43:10;;;;;;;15.83;11.70;;;3.10;96.70;;;;;;5035617;28;20238;-57
2022/03/22 03:48:23;;;;;;;14.83;10.67;;;3.10;96.70;;;;;;5035440;28;20334;-58
2022/03/22 03:50:50;;;;;;;15.70;11.17;;;3.10;96.70;;;;;;5035788;28;20279;-58
2022/03/22 03:53:16;;;;;;;14.27;11.07;;;3.00;96.70;;;;;;5035550;28;20233;-58
2022/03/22 03:55:43;;;;;;;14.37;10.43;;;3.00;96.60;;;;;;5035480;28;20210;-57
2022/03/22 03:58:10;;;;;;;12.83;10.27;;;3.10;96.60;;;;;;5035339;28;20256;-58
2022/03/22 04:00:36;;;;;;;16.07;10.90;;;3.00;96.60;;;;;;5035729;28;20248;-58
2022/03/22 04:03:03;;;;;;;12.77;9.77;;;3.00;96.90;;;;;;5035484;28;20230;-58
2022/03/22 04:05:31;;;;;;;14.60;10.93;;;3.00;96.70;;;;;;5035251;28;20210;-57
2022/03/22 04:07:58;;;;;;;13.93;10.17;;;3.10;96.60;;;;;;5035084;28;20217;-57
2022/03/22 04:10:25;;;;;;;14.17;10.93;;;3.10;96.70;;;;;;5035044;28;20206;-58
2022/03/22 04:12:51;;;;;;;17.50;10.67;;;3.00;96.60;;;;;;5035407;28;20287;-58
2022/03/22 04:15:19;;;;;;;14.10;10.53;;;3.00;96.70;;;;;;5036167;28;20210;-58
2022/03/22 04:17:45;;;;;;;14.67;10.17;;;3.00;96.70;;;;;;5036052;28;20209;-58
2022/03/22 04:20:13;;;;;;;13.77;9.80;;;3.10;96.70;;;;;;5035357;28;20210;-58
2022/03/22 04:22:41;;;;;;;19.83;12.10;;;3.00;96.60;;;;;;5035088;28;20780;-58
2022/03/22 04:25:08;;;;;;;24.87;16.70;;;3.00;96.60;;;;;;5035025;28;20210;-58
2022/03/22 04:33:04;;;;;;;16.83;11.40;;;3.00;96.70;;;;;;5034853;28;20703;-58
2022/03/22 04:35:32;;;;;;;14.97;11.10;;;3.00;96.70;;;;;;5035321;28;20213;-58
2022/03/22 04:38:00;;;;;;;17.47;11.13;;;3.00;96.90;;;;;;5034811;28;20212;-58
2022/03/22 04:40:27;;;;;;;17.57;10.77;;;3.10;97.00;;;;;;5034566;28;20214;-58
2022/03/22 04:42:54;;;;;;;14.03;10.17;;;3.10;97.10;;;;;;5034691;28;20242;-58
2022/03/22 04:45:20;;;;;;;12.83;8.77;;;3.00;97.20;;;;;;5034695;28;20213;-58
2022/03/22 04:47:47;;;;;;;13.57;9.40;;;3.00;97.20;;;;;;5034291;28;20210;-58
2022/03/22 04:50:16;;;;;;;13.63;9.47;;;2.90;97.30;;;;;;5034455;28;20293;-57
2022/03/22 04:58:13;;;;;;;21.23;13.27;;;2.70;97.50;;;;;;5034290;28;20585;-58
2022/03/22 05:00:39;;;;;;;15.83;10.63;;;2.60;97.50;;;;;;5034556;28;20218;-58
2022/03/22 05:03:07;;;;;;;16.60;11.40;;;2.60;97.50;;;;;;5034763;28;20232;-58
2022/03/22 05:08:18;;;;;;;15.60;10.47;;;2.70;97.60;;;;;;5034415;28;20288;-58
2022/03/22 05:10:46;;;;;;;15.13;10.53;;;2.70;97.70;;;;;;5034288;28;20257;-57
2022/03/22 05:13:13;;;;;;;14.50;11.63;;;2.70;97.80;;;;;;5034160;28;20300;-57
2022/03/22 05:15:40;;;;;;;17.63;11.33;;;2.70;97.90;;;;;;5034459;28;20283;-58
2022/03/22 05:18:06;;;;;;;14.60;10.73;;;2.80;97.80;;;;;;5034185;28;20217;-58
2022/03/22 05:20:33;;;;;;;14.27;10.30;;;2.80;97.80;;;;;;5034103;28;20210;-57
2022/03/22 05:23:00;;;;;;;17.43;12.27;;;2.90;97.70;;;;;;5034059;28;20593;-58
2022/03/22 05:25:30;;;;;;;17.60;11.47;;;2.90;97.80;;;;;;5034142;28;20206;-58
2022/03/22 05:27:59;;;;;;;14.93;10.73;;;2.90;97.80;;;;;;5034201;28;20293;-58
2022/03/22 05:30:25;;;;;;;16.80;11.43;;;2.90;97.70;;;;;;5034162;28;20210;-59
2022/03/22 05:32:52;;;;;;;16.87;12.40;;;2.90;97.70;;;;;;5033997;28;20230;-58
2022/03/22 05:35:19;;;;;;;14.97;11.50;;;2.90;97.70;;;;;;5034132;28;20206;-58
2022/03/22 05:37:46;;;;;;;20.90;11.80;;;3.00;97.70;;;;;;5033427;28;20202;-58
2022/03/22 05:40:13;;;;;;;17.13;11.27;;;3.00;97.80;;;;;;5033692;28;20206;-59
2022/03/22 05:42:40;;;;;;;25.03;14.47;;;3.10;97.80;;;;;;5033695;28;20295;-58
2022/03/22 05:45:11;;;;;;;21.87;14.03;;;3.10;97.80;;;;;;5033433;28;20210;-58
2022/03/22 05:47:38;;;;;;;30.77;20.10;;;3.20;97.70;;;;;;5033145;28;20224;-58
2022/03/22 05:50:06;;;;;;;22.57;13.27;;;3.30;97.70;;;;;;5033547;28;20214;-58
2022/03/22 05:52:33;;;;;;;15.83;10.37;;;3.30;97.50;;;;;;5032556;28;20256;-58
2022/03/22 05:55:00;;;;;;;20.57;10.97;;;3.30;97.50;;;;;;5033582;28;20206;-58
2022/03/22 05:57:27;;;;;;;16.00;11.83;;;3.40;97.50;;;;;;5033015;28;20207;-58
2022/03/22 05:59:53;;;;;;;14.83;10.23;;;3.50;97.40;;;;;;5033386;28;20210;-56
2022/03/22 06:02:21;;;;;;;14.27;10.50;;;3.60;97.30;;;;;;5033015;28;20599;-57
2022/03/22 06:04:48;;;;;;;14.20;10.90;;;3.60;97.10;;;;;;5032970;28;20213;-57
2022/03/22 06:07:15;;;;;;;14.03;9.70;;;3.70;97.20;;;;;;5032895;28;20212;-57
2022/03/22 06:09:42;;;;;;;15.47;10.60;;;3.70;97.20;;;;;;5033340;28;20210;-57
2022/03/22 06:12:09;;;;;;;23.27;13.67;;;3.80;97.00;;;;;;5033284;28;20260;-58
2022/03/22 06:14:36;;;;;;;14.17;10.20;;;3.80;96.90;;;;;;5033269;28;20209;-58
2022/03/22 06:17:03;;;;;;;18.10;12.73;;;4.00;96.90;;;;;;5033105;28;20677;-58
2022/03/22 06:19:31;;;;;;;23.67;14.70;;;4.10;96.60;;;;;;5033271;28;20232;-58
2022/03/22 06:21:58;;;;;;;14.77;10.50;;;4.30;96.40;;;;;;5033092;28;20253;-58
2022/03/22 06:24:26;;;;;;;17.80;10.17;;;4.40;96.30;;;;;;5033131;28;20202;-57
2022/03/22 06:26:52;;;;;;;13.80;10.27;;;4.80;96.50;;;;;;5032568;28;20210;-59
2022/03/22 06:29:19;;;;;;;14.60;10.07;;;5.80;95.50;;;;;;5033033;28;20206;-59
2022/03/22 06:31:46;;;;;;;14.00;9.93;;;7.10;93.90;;;;;;5032714;28;20229;-59
2022/03/22 06:34:13;;;;;;;15.47;9.80;;;8.40;91.80;;;;;;5032795;28;20272;-59
2022/03/22 06:36:41;;;;;;;16.97;10.73;;;9.60;90.00;;;;;;5032986;28;20214;-59
2022/03/22 06:39:07;;;;;;;15.97;10.23;;;10.60;86.20;;;;;;5032830;28;20206;-59
2022/03/22 06:41:34;;;;;;;13.00;9.90;;;11.70;81.50;;;;;;5032705;28;20232;-59
2022/03/22 06:44:01;;;;;;;14.97;10.27;;;12.70;78.60;;;;;;5032475;28;20207;-59
2022/03/22 06:46:28;;;;;;;15.00;10.37;;;13.60;76.20;;;;;;5032353;28;20206;-59
2022/03/22 06:48:54;;;;;;;14.73;10.13;;;14.50;73.10;;;;;;5032553;28;20213;-60
2022/03/22 06:51:22;;;;;;;13.00;10.27;;;15.30;71.90;;;;;;5032510;28;20237;-59
2022/03/22 06:53:50;;;;;;;12.37;10.70;;;16.20;66.90;;;;;;5032789;28;20229;-61
2022/03/22 06:56:16;;;;;;;16.73;12.77;;;16.80;64.80;;;;;;5032277;28;20735;-59
2022/03/22 07:05:46;;;;;;;12.70;10.23;;;17.40;60.90;;;;;;5032201;28;20288;-60
2022/03/22 07:08:13;;;;;;;12.52;9.65;;;18.30;58.60;;;;;;5032876;28;20213;-60
2022/03/22 07:11:47;;;;;;;13.73;9.45;;;18.90;56.40;;;;;;5032948;28;20214;-60
2022/03/22 07:13:30;;;;;;;13.18;9.77;;;19.30;55.20;;;;;;5031549;28;20787;-60
2022/03/22 07:15:56;;;;;;;11.98;9.63;;;19.50;53.80;;;;;;5032009;28;20228;-60
2022/03/22 07:18:23;;;;;;;13.93;10.07;;;19.70;53.50;;;;;;5031965;28;20210;-60
2022/03/22 07:20:50;;;;;;;16.17;10.25;;;20.00;53.90;;;;;;5032497;28;20202;-59
2022/03/22 07:23:17;;;;;;;12.43;10.35;;;20.40;52.70;;;;;;5032163;28;20229;-60
2022/03/22 07:25:45;;;;;;;13.65;9.95;;;20.50;52.00;;;;;;5032137;28;20210;-60
2022/03/22 07:28:11;;;;;;;12.60;10.30;;;20.60;51.40;;;;;;5031512;28;20210;-60
2022/03/22 07:30:38;;;;;;;10.73;9.57;;;20.90;51.60;;;;;;5032109;28;20214;-59
2022/03/22 07:33:05;;;;;;;13.88;9.93;;;21.50;50.80;;;;;;5031701;28;20238;-59
2022/03/22 07:35:32;;;;;;;11.77;9.57;;;22.10;50.00;;;;;;5032042;28;20212;-60
2022/03/22 07:37:58;;;;;;;12.23;9.85;;;22.40;49.10;;;;;;5031535;28;20206;-60
2022/03/22 07:40:25;;;;;;;11.32;9.90;;;22.70;48.30;;;;;;5031890;28;20207;-60
2022/03/22 07:42:53;;;;;;;10.80;9.35;;;22.80;48.10;;;;;;5055287;22;20234;-60
2022/03/22 07:45:20;;;;;;;11.95;10.18;;;22.50;47.90;;;;;;5051768;28;20197;-60
2022/03/22 07:47:47;;;;;;;14.13;9.70;;;22.20;48.30;;;;;;5051387;28;20591;-58
2022/03/22 07:53:07;;;;;;;20.65;9.35;;;21.80;48.50;;;;;;5051224;28;20228;-59
2022/03/22 07:55:36;;;;;;;13.10;9.15;;;22.20;48.20;;;;;;5051358;28;20664;-63
2022/03/22 07:58:05;;;;;;;10.85;8.95;;;22.50;46.30;;;;;;5051150;28;20206;-57
2022/03/22 08:00:34;;;;;;;9.70;8.70;;;22.40;46.50;;;;;;5051343;28;20201;-57
2022/03/22 08:03:03;;;;;;;12.23;9.15;;;21.80;46.00;;;;;;5051258;28;20335;-58
2022/03/22 08:05:31;;;;;;;12.35;9.27;;;20.80;47.30;;;;;;5051374;28;20210;-57
2022/03/22 08:07:59;;;;;;;13.18;9.65;;;19.70;49.40;;;;;;5050989;28;20577;-57
2022/03/22 08:10:26;;;;;;;15.93;9.98;;;18.20;50.90;;;;;;5051476;28;20312;-57
2022/03/22 08:12:53;;;;;;;16.23;10.18;;;16.60;53.70;;;;;;5051008;28;20758;-57
2022/03/22 08:15:22;;;;;;;11.37;9.67;;;15.70;55.10;;;;;;5052314;28;20677;-57
2022/03/22 08:17:48;;;;;;;19.17;10.03;;;15.00;56.30;;;;;;5054485;28;20255;-53
2022/03/22 08:20:15;;;;;;;13.97;9.67;;;14.30;57.30;;;;;;5054704;28;20213;-53
2022/03/22 08:22:50;;;;;;;17.57;10.47;;;13.10;59.10;;;;;;5054824;28;20225;-53
2022/03/22 08:25:23;;;;;;;14.27;10.03;;;12.50;60.10;;;;;;5054822;28;20205;-53
2022/03/22 08:27:50;;;;;;;13.97;9.33;;;12.20;61.20;;;;;;5054474;28;20244;-53
2022/03/22 08:30:20;;;;;;;12.90;9.17;;;11.70;62.00;;;;;;5054619;28;20300;-53
2022/03/22 08:32:49;;;;;;;17.00;10.73;;;11.30;64.10;;;;;;5054410;28;20229;-53
2022/03/22 08:35:16;;;;;;;10.63;8.27;;;11.40;65.30;;;;;;5054367;28;20717;-53
2022/03/22 08:37:43;;;;;;;12.40;8.83;;;11.50;63.10;;;;;;5054274;28;20217;-54
2022/03/22 08:40:11;;;;;;;11.20;8.77;;;11.50;62.70;;;;;;5054515;28;20206;-53
2022/03/22 08:42:38;;;;;;;15.73;8.63;;;11.70;62.90;;;;;;5054303;28;20230;-54
2022/03/22 08:45:07;;;;;;;11.53;7.87;;;11.80;63.10;;;;;;5054381;28;20205;-54
2022/03/22 08:47:35;;;;;;;9.30;8.10;;;11.90;63.00;;;;;;5054141;28;20213;-54
2022/03/22 08:50:05;;;;;;;12.23;7.60;;;12.00;60.90;;;;;;5054379;28;20206;-54
2022/03/22 08:52:31;;;;;;;11.93;8.90;;;12.00;61.10;;;;;;5054106;28;20233;-54
2022/03/22 08:54:59;;;;;;;10.03;7.50;;;11.90;61.20;;;;;;5053970;28;20302;-54
2022/03/22 08:57:26;;;;;;;12.27;8.33;;;11.80;61.40;;;;;;5054095;28;20205;-54
2022/03/22 08:59:53;;;;;;;13.10;7.53;;;11.80;63.40;;;;;;5054116;28;20628;-54
2022/03/22 09:02:20;;;;;;;12.17;7.87;;;11.80;62.90;;;;;;5054059;28;20243;-53
2022/03/22 09:07:32;;;;;;;9.77;7.83;;;12.00;62.10;;;;;;5053953;28;20546;-54
2022/03/22 09:09:58;;;;;;;10.93;7.97;;;12.10;61.80;;;;;;5053770;28;20677;-53
2022/03/22 09:12:25;;;;;;;11.10;8.40;;;12.30;61.80;;;;;;5053642;28;20644;-54
2022/03/22 09:14:53;;;;;;;9.80;8.20;;;12.40;61.30;;;;;;5053748;28;20694;-53
2022/03/22 09:17:20;;;;;;;9.70;8.53;;;12.60;60.70;;;;;;5053388;28;20205;-54
2022/03/22 09:19:47;;;;;;;11.57;8.33;;;12.70;60.00;;;;;;5053590;28;20210;-53
2022/03/22 09:22:14;;;;;;;10.97;8.63;;;12.70;59.70;;;;;;5053681;28;20235;-53
2022/03/22 09:24:42;;;;;;;10.33;7.90;;;12.80;59.60;;;;;;5053503;28;20205;-53
2022/03/22 09:27:08;;;;;;;10.57;7.60;;;12.90;59.50;;;;;;5052040;28;20217;-53
2022/03/22 09:29:35;;;;;;;13.23;8.70;;;13.10;59.40;;;;;;5054155;28;20214;-54
2022/03/22 09:32:02;;;;;;;13.00;8.13;;;13.30;59.10;;;;;;5053701;28;20252;-54
2022/03/22 09:34:32;;;;;;;11.53;8.90;;;13.50;58.80;;;;;;5053534;28;20201;-54
2022/03/22 09:36:59;;;;;;;10.83;8.70;;;13.50;59.20;;;;;;5053263;28;20209;-54
2022/03/22 09:39:25;;;;;;;11.73;8.23;;;13.60;59.50;;;;;;5053118;28;20235;-53
2022/03/22 09:41:56;;;;;;;10.63;8.60;;;13.70;58.60;;;;;;5053141;28;20688;-56
2022/03/22 09:44:23;;;;;;;12.13;8.67;;;13.50;58.90;;;;;;5053319;28;20201;-57
2022/03/22 09:46:50;;;;;;;10.23;8.50;;;13.30;59.00;;;;;;5052934;28;20222;-57
2022/03/22 09:49:17;;;;;;;13.13;9.30;;;13.20;59.80;;;;;;5052793;28;20267;-57
2022/03/22 09:51:48;;;;;;;11.33;8.57;;;13.40;60.10;;;;;;5052867;28;20208;-57
2022/03/22 09:54:17;;;;;;;11.73;9.10;;;13.60;60.40;;;;;;5050511;28;20798;-60
2022/03/22 09:56:45;;;;;;;10.80;8.07;;;13.90;59.60;;;;;;5028748;28;20206;-58
2022/03/22 09:59:14;;;;;;;13.07;8.83;;;13.90;59.10;;;;;;5032449;28;20609;-59
2022/03/22 10:01:41;;;;;;;14.40;9.70;;;13.90;60.60;;;;;;5031986;28;20206;-60
2022/03/22 10:04:12;;;;;;;10.37;9.30;;;13.80;59.90;;;;;;5032580;28;20773;-58
2022/03/22 10:06:46;;;;;;;15.03;9.23;;;13.80;59.50;;;;;;5032767;28;20661;-57
2022/03/22 10:09:12;;;;;;;10.27;8.53;;;14.00;59.30;;;;;;5032894;28;20751;-58
2022/03/22 10:11:41;;;;;;;9.90;8.53;;;14.20;59.30;;;;;;5033265;28;20629;-58
2022/03/22 10:14:09;;;;;;;13.33;8.90;;;14.40;58.90;;;;;;5032702;28;20234;-59
2022/03/22 10:16:46;;;;;;;12.80;9.70;;;14.60;58.80;;;;;;5031883;28;20210;-60
2022/03/22 10:19:20;;;;;;;10.27;8.80;;;14.50;59.50;;;;;;5032000;28;20217;-59
2022/03/22 10:21:47;;;;;;;10.63;9.20;;;14.40;58.80;;;;;;5032574;28;20292;-58
2022/03/22 10:24:15;;;;;;;11.67;8.87;;;14.10;59.20;;;;;;5032397;28;20288;-60
2022/03/22 10:26:44;;;;;;;13.13;9.20;;;14.20;59.60;;;;;;5032272;28;20234;-62
2022/03/22 10:29:12;;;;;;;13.73;9.37;;;14.30;59.50;;;;;;5031917;28;20666;-59
2022/03/22 10:31:40;;;;;;;10.83;9.23;;;14.30;59.40;;;;;;5032307;28;20681;-59
2022/03/22 10:34:10;;;;;;;11.07;9.27;;;14.40;59.80;;;;;;5032380;28;20230;-58
2022/03/22 10:36:38;;;;;;;12.93;9.43;;;14.50;59.70;;;;;;5032167;28;20210;-58
2022/03/22 10:39:09;;;;;;;12.43;9.60;;;14.60;59.60;;;;;;5031711;28;20210;-58
2022/03/22 10:41:41;;;;;;;12.17;9.07;;;14.80;59.50;;;;;;5032153;28;20218;-59
2022/03/22 10:44:10;;;;;;;11.63;9.40;;;15.00;59.20;;;;;;5032127;28;20234;-58
2022/03/22 10:46:38;;;;;;;10.80;9.33;;;15.20;58.90;;;;;;5032296;28;20206;-58
2022/03/22 10:49:09;;;;;;;16.00;9.50;;;15.30;58.40;;;;;;5032110;28;20210;-58
2022/03/22 10:51:42;;;;;;;12.53;10.00;;;15.50;58.50;;;;;;5032361;28;20213;-58
2022/03/22 10:54:12;;;;;;;14.00;10.20;;;15.50;58.20;;;;;;5032277;28;20272;-58
2022/03/22 10:56:45;;;;;;;13.07;10.57;;;15.50;58.20;;;;;;5032292;28;20662;-57
2022/03/22 10:59:16;;;;;;;15.60;10.33;;;15.50;58.50;;;;;;5032342;28;20297;-58
2022/03/22 11:01:43;;;;;;;14.43;9.90;;;15.60;58.30;;;;;;5032523;28;20217;-58
2022/03/22 11:04:15;;;;;;;11.13;9.30;;;15.70;58.20;;;;;;5031830;28;20668;-58
2022/03/22 11:06:43;;;;;;;15.07;9.63;;;15.90;57.70;;;;;;5031762;28;20587;-58
2022/03/22 11:09:09;;;;;;;11.23;9.77;;;16.00;57.90;;;;;;5031373;28;20215;-59
2022/03/22 11:11:37;;;;;;;13.47;10.30;;;16.30;58.00;;;;;;5031785;28;20293;-58
2022/03/22 11:14:04;;;;;;;13.17;10.50;;;16.40;56.90;;;;;;5031893;28;20238;-58
2022/03/22 11:16:33;;;;;;;13.40;10.60;;;16.40;56.90;;;;;;5031874;28;20256;-58
2022/03/22 11:19:02;;;;;;;13.15;10.57;;;16.50;56.70;;;;;;5031756;28;20241;-59
2022/03/22 11:21:30;;;;;;;12.47;10.40;;;16.60;56.50;;;;;;5031616;28;20217;-59
2022/03/22 11:24:05;;;;;;;14.63;11.10;;;16.80;56.00;;;;;;5031617;28;20706;-59
2022/03/22 11:26:31;;;;;;;15.77;11.83;;;16.90;56.10;;;;;;5031765;28;20605;-58
2022/03/22 11:29:00;;;;;;;12.53;10.17;;;16.70;56.30;;;;;;5031490;28;20630;-58
2022/03/22 11:31:27;;;;;;;14.13;11.37;;;16.40;56.60;;;;;;5031415;28;20693;-58
2022/03/22 11:34:09;;;;;;;16.42;11.35;;;16.30;57.00;;;;;;5031596;28;20654;-58
2022/03/22 11:36:45;;;;;;;14.03;10.90;;;16.30;57.30;;;;;;5031872;28;20213;-58
2022/03/22 11:39:18;;;;;;;13.38;10.45;;;16.50;57.10;;;;;;5031123;28;20206;-58
2022/03/22 11:44:41;;;;;;;15.23;10.88;;;16.90;56.40;;;;;;4989938;28;20219;-58
2022/03/22 11:47:11;;;;;;;14.07;10.55;;;17.10;56.70;;;;;;5020892;28;20210;-58
2022/03/22 11:49:52;;;;;;;16.05;11.00;;;17.20;56.00;;;;;;5031732;28;20202;-59
2022/03/22 11:52:22;;;;;;;17.80;11.85;;;17.40;56.00;;;;;;5035059;28;20230;-58
2022/03/22 11:55:06;;;;;;;13.27;10.88;;;17.50;56.40;;;;;;5034961;28;20233;-59
2022/03/22 11:57:42;;;;;;;15.25;11.65;;;17.70;55.90;;;;;;5035108;28;20209;-59
2022/03/22 12:00:10;;;;;;;14.95;11.23;;;17.80;56.00;;;;;;5035178;28;20574;-59
2022/03/22 12:02:39;;;;;;;16.17;12.00;;;18.00;55.50;;;;;;5035244;28;20233;-59
2022/03/22 12:05:06;;;;;;;14.52;11.23;;;17.90;55.30;;;;;;5035209;28;20209;-59
2022/03/22 12:07:36;;;;;;;13.82;11.70;;;17.90;55.20;;;;;;5035099;28;20206;-59
2022/03/22 12:10:08;;;;;;;16.20;11.98;;;18.10;54.90;;;;;;5035258;28;20207;-58
2022/03/22 12:12:37;;;;;;;14.65;11.40;;;18.10;55.60;;;;;;5035060;28;20280;-58
2022/03/22 12:15:06;;;;;;;16.88;12.05;;;17.80;56.10;;;;;;5034510;28;20325;-59
2022/03/22 12:17:34;;;;;;;16.15;12.00;;;17.60;57.10;;;;;;5034565;28;20210;-59
2022/03/22 12:20:03;;;;;;;17.73;12.15;;;17.50;57.00;;;;;;5034650;28;20296;-59
2022/03/22 12:22:34;;;;;;;16.02;11.77;;;17.40;56.80;;;;;;5034730;28;20237;-59
2022/03/22 12:25:01;;;;;;;13.55;11.30;;;17.50;56.70;;;;;;5034992;28;20210;-59
2022/03/22 12:27:28;;;;;;;16.60;11.45;;;17.60;58.20;;;;;;5034400;28;20207;-59
2022/03/22 12:29:56;;;;;;;16.27;12.18;;;17.60;58.50;;;;;;5034584;28;20583;-59
2022/03/22 12:32:26;;;;;;;14.80;12.05;;;17.60;57.40;;;;;;5034512;28;20253;-59
2022/03/22 12:34:53;;;;;;;16.83;11.63;;;17.60;58.20;;;;;;5034732;28;20226;-59
2022/03/22 12:37:20;;;;;;;14.75;12.63;;;17.60;57.70;;;;;;5034506;28;20301;-59
2022/03/22 12:39:49;;;;;;;16.55;11.82;;;17.60;57.60;;;;;;5034556;28;20214;-59
2022/03/22 12:42:17;;;;;;;16.10;12.45;;;17.70;56.50;;;;;;5034436;28;20711;-58
2022/03/22 12:44:44;;;;;;;17.02;11.95;;;17.70;56.60;;;;;;5034386;28;20209;-60
2022/03/22 12:47:11;;;;;;;16.85;12.52;;;17.70;56.70;;;;;;5034447;28;20214;-59
2022/03/22 12:49:39;;;;;;;16.52;12.77;;;17.80;57.10;;;;;;5034440;28;20207;-59
2022/03/22 12:52:07;;;;;;;14.27;11.05;;;17.90;57.10;;;;;;5034383;28;20740;-58
2022/03/22 12:54:36;;;;;;;13.55;11.95;;;17.90;56.80;;;;;;5034432;28;20285;-59
2022/03/22 12:57:08;;;;;;;17.35;12.48;;;18.10;56.20;;;;;;5034166;28;20721;-59
2022/03/22 12:59:35;;;;;;;14.85;11.93;;;18.20;56.40;;;;;;5033990;28;20206;-59
2022/03/22 13:02:05;;;;;;;15.35;12.10;;;18.30;55.50;;;;;;5033802;28;20206;-58
2022/03/22 13:04:32;;;;;;;13.48;11.70;;;18.50;55.40;;;;;;5034059;28;20209;-59
2022/03/22 13:07:00;;;;;;;18.33;12.07;;;18.70;55.10;;;;;;5033992;28;20675;-59
2022/03/22 13:12:15;;;;;;;14.57;10.57;;;19.10;54.40;;;;;;5034109;28;20201;-58
2022/03/22 13:17:31;;;;;;;13.98;11.68;;;19.20;53.00;;;;;;5033899;28;20272;-60
2022/03/22 13:19:58;;;;;;;16.83;12.02;;;19.30;53.70;;;;;;5033621;28;20206;-58
2022/03/22 13:22:27;;;;;;;13.43;11.23;;;19.30;53.30;;;;;;5033576;28;20263;-60